Time;durP1;ratioP1;P1;durP2;ratioP2;P2;SDS_P1;SDS_P2;PMS_P1;PMS_P2;Temp;Humidity;BMP_temperature;BMP_pressure;BME280_temperature;BME280_humidity;BME280_pressure;Samples;Min_cycle;Max_cycle;Signal;HPM_P1;HPM_P2
2022/01/09 00:01:50;;;;;;;10.40;8.37;;;5.00;99.90;;;;;;5075080;28;20122;-74
2022/01/09 00:04:16;;;;;;;16.37;10.80;;;;;;;;;;5074390;28;20135;-74
2022/01/09 00:06:42;;;;;;;10.07;8.38;;;;;;;;;;5074523;28;20048;-73
2022/01/09 00:09:08;;;;;;;11.15;8.88;;;5.10;99.90;;;;;;5073974;28;20393;-74
2022/01/09 00:11:33;;;;;;;14.23;11.03;;;5.20;99.90;;;;;;5074500;28;20048;-74
2022/01/09 00:13:59;;;;;;;15.20;11.37;;;;;;;;;;5074581;28;20133;-74
2022/01/09 00:16:25;;;;;;;12.07;8.98;;;;;;;;;;5074042;28;20040;-74
2022/01/09 00:18:51;;;;;;;12.57;10.40;;;5.00;99.90;;;;;;5074430;28;20051;-74
2022/01/09 00:21:18;;;;;;;13.90;10.73;;;;;;;;;;5073934;28;20127;-74
2022/01/09 00:23:45;;;;;;;15.40;11.15;;;5.20;99.90;;;;;;5073800;28;20056;-74
2022/01/09 00:26:11;;;;;;;14.23;10.65;;;5.10;99.90;;;;;;5073839;28;20052;-74
2022/01/09 00:28:37;;;;;;;14.68;11.60;;;5.10;99.90;;;;;;5074133;28;20041;-73
2022/01/09 00:31:03;;;;;;;20.27;13.80;;;5.10;99.90;;;;;;5073025;28;20044;-73
2022/01/09 00:33:29;;;;;;;16.17;11.97;;;;;;;;;;5073734;28;20048;-74
2022/01/09 00:35:55;;;;;;;15.00;10.85;;;;;;;;;;5073007;28;20052;-74
2022/01/09 00:38:21;;;;;;;11.05;9.85;;;;;;;;;;5072028;28;20526;-74
2022/01/09 00:40:47;;;;;;;11.27;9.02;;;5.10;99.90;;;;;;5073130;28;20055;-74
2022/01/09 00:43:13;;;;;;;10.13;7.17;;;5.20;99.90;;;;;;5072532;28;20044;-74
2022/01/09 00:45:41;;;;;;;10.40;8.27;;;5.20;99.90;;;;;;5073778;28;20052;-74
2022/01/09 00:48:08;;;;;;;12.27;9.27;;;5.20;99.90;;;;;;5073832;28;20052;-74
2022/01/09 00:50:36;;;;;;;15.63;10.48;;;5.20;99.90;;;;;;5073329;28;20119;-74
2022/01/09 00:53:05;;;;;;;15.93;10.35;;;5.20;99.90;;;;;;5073672;28;20110;-74
2022/01/09 00:55:31;;;;;;;16.67;10.90;;;5.20;99.90;;;;;;5073289;28;20079;-74
2022/01/09 00:57:57;;;;;;;15.02;9.77;;;5.20;99.90;;;;;;5072589;28;20389;-74
2022/01/09 01:00:23;;;;;;;24.33;12.37;;;5.20;99.90;;;;;;5072042;28;20041;-73
2022/01/09 01:02:48;;;;;;;31.03;14.40;;;5.20;99.90;;;;;;5073695;28;20044;-73
2022/01/09 01:05:14;;;;;;;17.17;10.80;;;5.20;99.90;;;;;;5072197;28;20041;-74
2022/01/09 01:07:40;;;;;;;26.93;13.67;;;5.20;99.90;;;;;;5073430;28;20502;-73
2022/01/09 01:10:06;;;;;;;22.27;12.73;;;5.20;99.90;;;;;;5073385;28;20041;-73
2022/01/09 01:12:33;;;;;;;30.63;15.20;;;5.20;99.90;;;;;;5072993;28;20141;-73
2022/01/09 01:14:58;;;;;;;23.33;13.50;;;5.40;99.90;;;;;;5072407;28;20056;-73
2022/01/09 01:17:24;;;;;;;24.07;13.73;;;5.50;99.90;;;;;;5071648;28;20041;-73
2022/01/09 01:19:52;;;;;;;29.10;14.70;;;5.50;99.90;;;;;;5088778;28;20044;-73
2022/01/09 01:22:18;;;;;;;33.25;15.23;;;5.40;99.90;;;;;;5071627;28;20060;-73
2022/01/09 01:24:46;;;;;;;27.15;14.02;;;5.50;99.90;;;;;;5073040;28;20456;-73
2022/01/09 01:27:12;;;;;;;21.38;13.77;;;5.20;99.90;;;;;;5073325;28;20110;-73
2022/01/09 01:29:38;;;;;;;24.33;14.23;;;5.30;99.90;;;;;;5072858;28;20082;-73
2022/01/09 01:32:04;;;;;;;21.43;13.40;;;5.20;99.90;;;;;;5073209;28;20052;-73
2022/01/09 01:34:30;;;;;;;22.73;13.57;;;5.30;99.90;;;;;;5072840;28;20091;-73
2022/01/09 01:36:56;;;;;;;22.70;13.43;;;5.30;99.90;;;;;;5073075;28;20079;-73
2022/01/09 01:39:21;;;;;;;33.13;15.20;;;5.30;99.90;;;;;;5072649;28;20143;-73
2022/01/09 01:41:48;;;;;;;20.33;12.17;;;5.30;99.90;;;;;;5071501;28;20131;-73
2022/01/09 01:44:15;;;;;;;25.95;13.02;;;5.30;99.90;;;;;;5072996;28;20048;-74
2022/01/09 01:46:41;;;;;;;26.38;14.23;;;5.30;99.90;;;;;;5072482;28;20555;-74
2022/01/09 01:49:10;;;;;;;22.80;11.90;;;5.30;99.90;;;;;;5073153;28;20132;-73
2022/01/09 01:51:39;;;;;;;23.05;10.85;;;5.30;99.90;;;;;;5072602;28;20048;-73
2022/01/09 01:54:05;;;;;;;23.40;10.40;;;5.40;99.90;;;;;;5072927;28;20055;-73
2022/01/09 01:56:31;;;;;;;23.42;9.55;;;5.40;99.90;;;;;;5072544;28;20045;-74
2022/01/09 01:58:57;;;;;;;24.77;9.03;;;5.40;99.90;;;;;;5072747;28;20464;-73
2022/01/09 02:01:22;;;;;;;31.97;8.50;;;5.40;99.90;;;;;;5072341;28;20515;-73
2022/01/09 02:03:48;;;;;;;32.30;8.50;;;5.40;99.90;;;;;;5075013;28;20086;-73
2022/01/09 02:06:15;;;;;;;28.80;6.80;;;5.40;99.90;;;;;;5075393;28;20127;-74
2022/01/09 02:08:43;;;;;;;35.47;6.13;;;5.50;99.90;;;;;;5076506;28;20052;-73
2022/01/09 02:11:12;;;;;;;32.78;6.28;;;5.50;99.90;;;;;;5076706;28;20090;-73
2022/01/09 02:13:44;;;;;;;32.75;5.20;;;5.50;99.90;;;;;;5075495;28;20044;-73
2022/01/09 02:16:16;;;;;;;34.40;5.30;;;5.50;99.90;;;;;;5076723;28;20056;-74
2022/01/09 02:18:44;;;;;;;38.63;6.07;;;5.60;99.90;;;;;;5076272;28;20059;-74
2022/01/09 02:21:12;;;;;;;33.03;5.10;;;5.60;99.90;;;;;;5076698;28;20186;-74
2022/01/09 02:23:40;;;;;;;45.38;5.75;;;5.60;99.90;;;;;;5074967;28;20044;-74
2022/01/09 02:26:06;;;;;;;43.35;6.55;;;5.70;99.90;;;;;;5076695;28;20444;-74
2022/01/09 02:28:32;;;;;;;47.80;6.40;;;5.70;99.90;;;;;;5076084;28;20059;-74
2022/01/09 02:30:57;;;;;;;36.10;5.40;;;5.70;99.90;;;;;;5076450;28;20080;-74
2022/01/09 02:33:24;;;;;;;46.43;5.53;;;5.70;99.90;;;;;;5076111;28;20543;-81
2022/01/09 02:35:52;;;;;;;47.60;5.70;;;5.70;99.90;;;;;;5076243;28;20106;-74
2022/01/09 02:38:20;;;;;;;44.65;5.35;;;5.70;99.90;;;;;;5076206;28;20136;-74
2022/01/09 02:40:53;;;;;;;42.58;5.90;;;5.80;99.90;;;;;;5075811;28;20080;-73
2022/01/09 02:43:20;;;;;;;61.08;7.22;;;5.80;99.90;;;;;;5076214;28;20048;-73
2022/01/09 02:45:50;;;;;;;59.90;6.18;;;5.80;99.90;;;;;;5075813;28;20055;-73
2022/01/09 02:48:16;;;;;;;56.13;6.85;;;5.80;99.90;;;;;;5076262;28;20058;-73
2022/01/09 02:50:53;;;;;;;60.20;7.50;;;5.80;99.90;;;;;;5074521;28;20400;-73
2022/01/09 02:53:21;;;;;;;61.75;7.80;;;5.80;99.90;;;;;;5076039;28;20052;-73
2022/01/09 02:55:48;;;;;;;70.25;7.93;;;5.90;99.90;;;;;;5075669;28;20139;-73
2022/01/09 02:58:14;;;;;;;69.43;8.38;;;5.90;99.90;;;;;;5075939;28;20099;-73
2022/01/09 03:00:43;;;;;;;64.15;8.13;;;5.90;99.90;;;;;;5075392;28;20074;-73
2022/01/09 03:03:09;;;;;;;65.78;8.13;;;;;;;;;;5075773;28;20102;-73
2022/01/09 03:05:36;;;;;;;57.75;7.45;;;;;;;;;;5075511;28;20455;-73
2022/01/09 03:08:02;;;;;;;52.58;7.18;;;;;;;;;;5075441;28;20559;-73
2022/01/09 03:10:28;;;;;;;58.03;8.02;;;6.10;99.90;;;;;;5075457;28;20080;-81
2022/01/09 03:12:57;;;;;;;63.85;8.48;;;6.10;99.90;;;;;;5075591;28;20044;-74
2022/01/09 03:15:24;;;;;;;65.57;7.40;;;6.10;99.90;;;;;;5074411;28;20048;-73
2022/01/09 03:17:50;;;;;;;61.38;8.75;;;6.10;99.90;;;;;;5075267;28;20061;-73
2022/01/09 03:20:19;;;;;;;68.70;7.38;;;6.10;99.90;;;;;;5075366;28;20041;-73
2022/01/09 03:22:45;;;;;;;51.15;6.28;;;6.10;99.90;;;;;;5075106;28;20060;-73
2022/01/09 03:25:11;;;;;;;49.20;6.60;;;6.10;99.90;;;;;;5075377;28;20056;-73
2022/01/09 03:27:39;;;;;;;44.00;6.20;;;6.10;99.90;;;;;;5074127;28;20044;-73
2022/01/09 03:30:08;;;;;;;53.40;6.68;;;6.10;99.90;;;;;;5107936;28;20291;-73
2022/01/09 03:32:37;;;;;;;55.72;7.38;;;6.10;99.90;;;;;;5074896;28;20040;-74
2022/01/09 03:35:08;;;;;;;43.75;6.68;;;6.10;99.90;;;;;;5075322;28;20076;-73
2022/01/09 03:37:34;;;;;;;52.33;6.97;;;6.10;99.90;;;;;;5074862;28;20066;-74
2022/01/09 03:40:00;;;;;;;50.25;6.75;;;6.10;99.90;;;;;;5057108;28;20446;-73
2022/01/09 03:42:25;;;;;;;46.03;6.90;;;6.10;99.90;;;;;;5075076;28;20048;-73
2022/01/09 03:44:51;;;;;;;48.50;6.23;;;6.10;99.90;;;;;;5073681;28;20519;-73
2022/01/09 03:47:17;;;;;;;41.43;6.87;;;6.10;99.90;;;;;;5074986;28;20114;-73
2022/01/09 03:49:42;;;;;;;41.60;6.67;;;6.10;99.90;;;;;;5074659;28;20051;-73
2022/01/09 03:52:08;;;;;;;54.63;7.20;;;6.10;99.90;;;;;;5074891;28;20109;-73
2022/01/09 03:54:37;;;;;;;42.37;5.47;;;6.10;99.90;;;;;;5074218;28;20076;-73
2022/01/09 03:57:03;;;;;;;48.15;6.00;;;6.10;99.90;;;;;;5074795;28;20084;-73
2022/01/09 03:59:29;;;;;;;38.85;5.03;;;6.10;99.90;;;;;;5073456;28;20045;-73
2022/01/09 04:01:54;;;;;;;34.17;6.23;;;6.10;99.90;;;;;;5074429;28;20048;-73
2022/01/09 04:04:20;;;;;;;43.77;5.30;;;6.10;99.90;;;;;;5074639;28;20087;-73
2022/01/09 04:06:49;;;;;;;42.55;6.38;;;6.10;99.90;;;;;;5074339;28;20408;-73
2022/01/09 04:09:21;;;;;;;41.65;5.13;;;6.10;99.90;;;;;;5074208;28;20476;-73
2022/01/09 04:11:48;;;;;;;35.83;5.22;;;6.10;99.90;;;;;;5073099;28;20048;-73
2022/01/09 04:14:14;;;;;;;34.60;5.97;;;6.10;99.90;;;;;;5074483;28;20052;-73
2022/01/09 04:16:41;;;;;;;29.80;4.90;;;6.10;99.90;;;;;;5074062;28;20049;-73
2022/01/09 04:19:12;;;;;;;37.67;5.38;;;6.10;99.90;;;;;;5074212;28;20519;-73
2022/01/09 04:21:39;;;;;;;33.42;4.70;;;6.10;99.90;;;;;;5072994;28;20057;-73
2022/01/09 04:24:05;;;;;;;42.03;4.93;;;6.10;99.90;;;;;;5073795;28;20100;-73
2022/01/09 04:26:30;;;;;;;33.13;5.37;;;6.10;99.90;;;;;;5073891;28;20462;-73
2022/01/09 04:28:56;;;;;;;30.33;4.83;;;6.00;99.90;;;;;;5074118;28;20961;-73
2022/01/09 04:31:22;;;;;;;29.60;4.40;;;6.10;99.90;;;;;;5074013;28;20074;-73
2022/01/09 04:33:47;;;;;;;36.50;4.90;;;6.10;99.90;;;;;;5073663;28;20056;-73
2022/01/09 04:36:13;;;;;;;35.03;4.90;;;6.00;99.90;;;;;;5074292;28;20055;-73
2022/01/09 04:38:39;;;;;;;33.10;5.40;;;6.10;99.90;;;;;;5072567;28;20056;-74
2022/01/09 04:41:04;;;;;;;35.77;4.43;;;6.00;99.90;;;;;;5073205;28;20080;-73
2022/01/09 04:43:30;;;;;;;37.27;4.83;;;6.00;99.90;;;;;;5074036;28;20090;-73
2022/01/09 04:45:56;;;;;;;32.40;5.03;;;6.00;99.90;;;;;;5073467;28;20059;-73
2022/01/09 04:48:22;;;;;;;35.20;5.37;;;5.90;99.90;;;;;;5073984;28;20456;-73
2022/01/09 04:50:50;;;;;;;31.40;4.20;;;5.90;99.90;;;;;;5073464;28;20120;-73
2022/01/09 04:53:15;;;;;;;35.97;4.20;;;5.90;99.90;;;;;;5073833;28;20056;-73
2022/01/09 04:55:49;;;;;;;30.43;4.87;;;5.90;99.90;;;;;;5073337;28;20071;-73
2022/01/09 04:58:18;;;;;;;21.65;4.15;;;5.90;99.90;;;;;;5073597;28;20078;-73
2022/01/09 05:00:44;;;;;;;36.65;4.45;;;5.80;99.90;;;;;;5072998;28;20045;-73
2022/01/09 05:03:11;;;;;;;22.25;4.38;;;5.90;99.90;;;;;;5073434;28;20051;-73
2022/01/09 05:05:37;;;;;;;26.55;4.60;;;5.90;99.90;;;;;;5073159;28;20514;-73
2022/01/09 05:08:03;;;;;;;24.60;4.45;;;5.90;99.90;;;;;;5073146;28;20040;-73
2022/01/09 05:10:28;;;;;;;24.33;4.17;;;5.80;99.90;;;;;;5073360;28;20047;-73
2022/01/09 05:12:54;;;;;;;28.03;4.33;;;5.80;99.90;;;;;;5071896;28;20106;-73
2022/01/09 05:15:20;;;;;;;21.40;3.30;;;5.80;99.90;;;;;;5073330;28;20040;-73
2022/01/09 05:17:46;;;;;;;33.17;4.07;;;5.80;99.90;;;;;;5073069;28;20125;-74
2022/01/09 05:20:13;;;;;;;23.05;4.30;;;5.80;99.90;;;;;;5073212;28;20045;-73
2022/01/09 05:22:39;;;;;;;31.05;4.10;;;5.80;99.90;;;;;;5073135;28;20055;-73
2022/01/09 05:25:08;;;;;;;22.95;4.22;;;5.80;99.90;;;;;;5072911;28;20048;-73
2022/01/09 05:27:35;;;;;;;25.10;3.67;;;5.80;99.90;;;;;;5073114;28;20485;-73
2022/01/09 05:30:03;;;;;;;30.20;3.95;;;5.80;99.90;;;;;;5072755;28;20047;-73
2022/01/09 05:32:29;;;;;;;30.45;4.75;;;5.80;99.90;;;;;;5073049;28;20055;-73
2022/01/09 05:34:55;;;;;;;24.70;3.70;;;5.70;99.90;;;;;;5072744;28;20045;-73
2022/01/09 05:37:21;;;;;;;35.33;4.77;;;5.80;99.90;;;;;;5072716;28;20052;-73
2022/01/09 05:39:46;;;;;;;24.63;4.73;;;5.80;99.90;;;;;;5072481;28;20041;-74
2022/01/09 05:42:14;;;;;;;33.63;5.10;;;5.70;99.90;;;;;;5072870;28;20446;-73
2022/01/09 05:44:40;;;;;;;38.08;4.72;;;5.70;99.90;;;;;;5073338;28;20146;-73
2022/01/09 05:47:05;;;;;;;34.93;5.23;;;5.70;99.90;;;;;;5105330;28;20302;-73
2022/01/09 05:49:31;;;;;;;33.47;5.27;;;5.70;99.90;;;;;;5072884;28;20043;-73
2022/01/09 05:51:58;;;;;;;34.22;4.68;;;5.70;99.90;;;;;;5072546;28;20045;-73
2022/01/09 05:54:24;;;;;;;36.72;4.25;;;5.70;99.90;;;;;;5071887;28;20054;-73
2022/01/09 05:56:51;;;;;;;33.97;4.68;;;5.70;99.90;;;;;;5072590;28;20090;-73
2022/01/09 05:59:18;;;;;;;43.58;4.72;;;5.70;99.90;;;;;;5072603;28;20102;-73
2022/01/09 06:01:44;;;;;;;31.80;4.05;;;5.70;99.90;;;;;;5072766;28;20076;-73
2022/01/09 06:04:10;;;;;;;26.30;4.32;;;5.70;99.90;;;;;;5072417;28;20084;-73
2022/01/09 06:06:35;;;;;;;29.73;4.00;;;5.70;99.90;;;;;;5071502;28;20091;-73
2022/01/09 06:09:01;;;;;;;28.23;4.13;;;5.70;99.90;;;;;;5071044;28;20040;-74
2022/01/09 06:11:27;;;;;;;33.90;4.83;;;5.70;99.90;;;;;;5072262;28;20045;-73
2022/01/09 06:13:53;;;;;;;34.20;4.73;;;5.70;99.90;;;;;;5072502;28;20136;-74
2022/01/09 06:16:19;;;;;;;27.90;4.32;;;5.70;99.90;;;;;;5071897;28;20055;-73
2022/01/09 06:18:45;;;;;;;30.03;4.10;;;5.70;99.90;;;;;;5072561;28;20047;-73
2022/01/09 06:21:10;;;;;;;25.63;4.00;;;5.70;99.90;;;;;;5072337;28;20283;-73
2022/01/09 06:23:36;;;;;;;27.43;3.50;;;5.70;99.90;;;;;;5072749;28;20086;-73
2022/01/09 06:26:02;;;;;;;23.93;3.03;;;5.70;99.90;;;;;;5072261;28;20098;-73
2022/01/09 06:28:28;;;;;;;21.90;3.43;;;5.70;99.90;;;;;;5072540;28;20094;-73
2022/01/09 06:30:53;;;;;;;20.10;3.10;;;5.70;99.90;;;;;;5072218;28;20051;-74
2022/01/09 06:33:19;;;;;;;26.73;4.10;;;5.60;99.90;;;;;;5072504;28;20049;-73
2022/01/09 06:35:45;;;;;;;19.50;3.47;;;5.60;99.90;;;;;;5072450;28;20062;-73
2022/01/09 06:38:11;;;;;;;25.23;3.47;;;5.60;99.90;;;;;;5072216;28;20059;-74
2022/01/09 06:40:37;;;;;;;23.37;3.20;;;5.60;99.90;;;;;;5072601;28;20056;-73
2022/01/09 06:43:04;;;;;;;24.15;3.45;;;5.50;99.90;;;;;;5072470;28;20279;-74
2022/01/09 06:45:31;;;;;;;24.88;3.50;;;5.50;99.90;;;;;;5072398;28;20041;-73
2022/01/09 06:47:57;;;;;;;23.05;3.60;;;5.50;99.90;;;;;;5072125;28;20048;-74
2022/01/09 06:50:25;;;;;;;26.85;3.22;;;5.40;99.90;;;;;;5075238;28;20098;-74
2022/01/09 06:52:51;;;;;;;20.15;2.90;;;5.40;99.90;;;;;;5076026;28;20135;-73
2022/01/09 06:55:17;;;;;;;25.70;4.95;;;5.40;99.90;;;;;;5075631;28;20059;-73
2022/01/09 06:57:43;;;;;;;22.65;4.22;;;5.30;99.90;;;;;;5076130;28;20075;-73
2022/01/09 07:00:10;;;;;;;27.38;3.42;;;5.40;99.90;;;;;;5075470;28;20044;-73
2022/01/09 07:02:36;;;;;;;22.98;2.90;;;5.40;99.90;;;;;;5075685;28;20578;-73
2022/01/09 07:05:03;;;;;;;32.37;4.10;;;5.30;99.90;;;;;;5075460;28;20136;-74
2022/01/09 07:07:29;;;;;;;24.70;3.10;;;5.20;99.90;;;;;;5075721;28;20286;-73
2022/01/09 07:09:55;;;;;;;23.97;3.20;;;5.20;99.90;;;;;;5075868;28;20041;-73
2022/01/09 07:12:20;;;;;;;24.00;3.60;;;5.20;99.90;;;;;;5075579;28;20075;-73
2022/01/09 07:14:47;;;;;;;21.37;3.30;;;5.20;99.90;;;;;;5091518;28;20515;-73
2022/01/09 07:17:13;;;;;;;26.15;3.17;;;5.20;99.90;;;;;;5075140;28;20048;-73
2022/01/09 07:19:38;;;;;;;21.07;2.93;;;5.20;99.90;;;;;;5091217;28;20045;-73
2022/01/09 07:22:07;;;;;;;18.23;3.10;;;5.20;99.90;;;;;;5074999;28;20083;-73
2022/01/09 07:24:33;;;;;;;23.40;3.40;;;5.20;99.90;;;;;;5075996;28;20433;-73
2022/01/09 07:26:59;;;;;;;22.20;2.70;;;5.20;99.90;;;;;;5075063;28;20447;-74
2022/01/09 07:29:25;;;;;;;19.20;2.63;;;5.20;99.90;;;;;;5075330;28;20032;-73
2022/01/09 07:31:51;;;;;;;17.30;2.80;;;5.20;99.90;;;;;;5074086;28;20294;-73
2022/01/09 07:34:21;;;;;;;14.73;2.42;;;5.10;99.90;;;;;;5074917;28;20048;-73
2022/01/09 07:36:47;;;;;;;17.52;2.78;;;5.10;99.90;;;;;;5075156;28;20084;-73
2022/01/09 07:39:13;;;;;;;14.73;2.30;;;5.10;99.90;;;;;;5074791;28;20039;-73
2022/01/09 07:41:40;;;;;;;14.27;2.20;;;5.10;99.90;;;;;;5074721;28;20049;-73
2022/01/09 07:44:06;;;;;;;9.00;1.90;;;5.10;99.90;;;;;;5074700;28;20113;-73
2022/01/09 07:46:32;;;;;;;15.10;2.50;;;5.00;99.90;;;;;;5074079;28;20052;-73
2022/01/09 07:48:58;;;;;;;17.73;1.93;;;5.00;99.90;;;;;;5090765;28;20105;-73
2022/01/09 07:51:23;;;;;;;13.83;2.20;;;5.00;99.90;;;;;;5074602;28;20045;-74
2022/01/09 07:53:49;;;;;;;10.10;1.80;;;5.10;99.90;;;;;;5074840;28;20490;-73
2022/01/09 07:56:15;;;;;;;11.40;1.90;;;5.00;99.90;;;;;;5073373;28;20047;-73
2022/01/09 07:58:41;;;;;;;13.33;2.40;;;5.00;99.90;;;;;;5074851;28;20049;-73
2022/01/09 08:01:06;;;;;;;14.43;2.97;;;5.10;99.90;;;;;;5073791;28;20044;-74
2022/01/09 08:03:34;;;;;;;15.33;2.00;;;5.10;99.90;;;;;;5074409;28;20051;-73
2022/01/09 08:05:59;;;;;;;16.70;2.38;;;5.10;99.90;;;;;;5074612;28;20242;-73
2022/01/09 08:08:25;;;;;;;14.63;2.23;;;5.10;99.90;;;;;;5074258;28;20139;-73
2022/01/09 08:10:52;;;;;;;14.93;2.50;;;5.10;99.90;;;;;;5074556;28;20036;-73
2022/01/09 08:13:18;;;;;;;17.45;2.75;;;5.10;99.90;;;;;;5074222;28;20052;-73
2022/01/09 08:15:44;;;;;;;16.60;2.95;;;5.10;99.90;;;;;;5074772;28;20051;-73
2022/01/09 08:18:09;;;;;;;19.50;3.33;;;5.10;99.90;;;;;;5074142;28;20480;-74
2022/01/09 08:20:35;;;;;;;22.73;3.20;;;5.10;99.90;;;;;;5074300;28;20079;-73
2022/01/09 08:23:01;;;;;;;18.63;2.90;;;5.20;99.90;;;;;;5074095;28;20366;-73
2022/01/09 08:25:27;;;;;;;24.20;3.87;;;5.10;99.90;;;;;;5072873;28;20060;-73
2022/01/09 08:27:53;;;;;;;23.67;3.67;;;5.20;99.90;;;;;;5073159;28;20102;-74
2022/01/09 08:30:19;;;;;;;20.63;3.17;;;5.20;99.90;;;;;;5073812;28;20064;-74
2022/01/09 08:32:46;;;;;;;29.55;3.88;;;5.20;99.90;;;;;;5074098;28;20617;-73
2022/01/09 08:35:12;;;;;;;24.60;3.63;;;5.30;99.90;;;;;;5072500;28;20052;-74
2022/01/09 08:37:41;;;;;;;30.23;4.18;;;5.30;99.90;;;;;;5073951;28;20090;-74
2022/01/09 08:40:12;;;;;;;27.17;3.42;;;5.30;99.90;;;;;;5073503;28;20047;-74
2022/01/09 08:42:40;;;;;;;22.10;3.65;;;5.30;99.90;;;;;;5073301;28;20044;-74
2022/01/09 08:45:06;;;;;;;27.83;3.97;;;5.30;99.90;;;;;;5073937;28;20044;-74
2022/01/09 08:47:35;;;;;;;14.02;2.97;;;5.30;99.90;;;;;;5072619;28;20547;-73
2022/01/09 08:50:02;;;;;;;18.33;2.75;;;5.30;99.90;;;;;;5073760;28;20052;-74
2022/01/09 08:52:28;;;;;;;23.65;3.65;;;5.30;99.90;;;;;;5073289;28;20483;-73
2022/01/09 08:54:53;;;;;;;19.20;2.57;;;5.30;99.90;;;;;;5073913;28;20053;-73
2022/01/09 08:57:19;;;;;;;21.37;2.07;;;5.30;99.90;;;;;;5073718;28;20044;-73
2022/01/09 08:59:45;;;;;;;16.83;2.67;;;5.30;99.90;;;;;;5073538;28;20127;-73
2022/01/09 09:02:10;;;;;;;10.63;1.67;;;5.30;99.90;;;;;;5073326;28;20435;-75
2022/01/09 09:04:38;;;;;;;11.30;2.60;;;5.20;99.90;;;;;;5073853;28;20503;-74
2022/01/09 09:07:04;;;;;;;6.43;1.58;;;5.30;99.90;;;;;;5072392;28;20063;-73
2022/01/09 09:09:30;;;;;;;9.97;1.67;;;5.30;99.90;;;;;;5073127;28;20037;-73
2022/01/09 09:11:55;;;;;;;7.70;1.57;;;5.30;99.90;;;;;;5073200;28;20041;-73
2022/01/09 09:14:22;;;;;;;13.67;2.10;;;5.30;99.90;;;;;;5071654;28;20549;-73
2022/01/09 09:16:48;;;;;;;13.10;1.95;;;5.30;99.90;;;;;;5072421;28;20135;-74
2022/01/09 09:19:13;;;;;;;12.17;1.87;;;5.30;99.90;;;;;;5073048;28;20119;-72
2022/01/09 09:21:39;;;;;;;12.60;1.70;;;5.30;99.90;;;;;;5072607;28;20661;-73
2022/01/09 09:24:05;;;;;;;14.77;2.30;;;5.30;99.90;;;;;;5105058;28;20571;-73
2022/01/09 09:26:31;;;;;;;16.53;1.93;;;5.30;99.90;;;;;;5072842;28;20117;-73
2022/01/09 09:28:56;;;;;;;18.40;2.17;;;5.30;99.90;;;;;;5073157;28;20052;-73
2022/01/09 09:31:22;;;;;;;8.73;2.03;;;5.30;99.90;;;;;;5071878;28;20048;-73
2022/01/09 09:33:48;;;;;;;15.33;2.53;;;5.30;99.90;;;;;;5073060;28;20037;-73
2022/01/09 09:36:14;;;;;;;13.50;2.33;;;5.30;99.90;;;;;;5072827;28;20040;-74
2022/01/09 09:38:40;;;;;;;16.97;3.40;;;5.20;99.90;;;;;;5072381;28;20306;-72
2022/01/09 09:41:05;;;;;;;8.90;2.53;;;5.30;99.90;;;;;;5072954;28;20048;-73
2022/01/09 09:43:31;;;;;;;12.60;1.77;;;5.20;99.90;;;;;;5072756;28;20541;-73
2022/01/09 09:45:57;;;;;;;9.03;1.97;;;5.20;99.90;;;;;;5072955;28;20443;-73
2022/01/09 09:48:23;;;;;;;9.50;2.10;;;5.20;99.90;;;;;;5073843;28;20480;-73
2022/01/09 09:50:49;;;;;;;13.30;2.13;;;5.20;99.90;;;;;;5072999;28;20380;-73
2022/01/09 09:53:15;;;;;;;11.43;1.75;;;5.20;99.90;;;;;;5072614;28;20036;-74
2022/01/09 09:55:41;;;;;;;9.07;2.00;;;5.20;99.90;;;;;;5071861;28;20127;-73
2022/01/09 09:58:07;;;;;;;12.25;2.25;;;5.20;99.90;;;;;;5073045;28;20048;-72
2022/01/09 10:00:33;;;;;;;10.53;2.00;;;5.20;99.90;;;;;;5072506;28;20044;-73
2022/01/09 10:03:00;;;;;;;12.77;1.90;;;5.30;99.90;;;;;;5072764;28;20330;-73
2022/01/09 10:05:34;;;;;;;12.68;2.40;;;5.30;99.90;;;;;;5072953;28;20493;-73
2022/01/09 10:08:10;;;;;;;16.67;2.97;;;5.30;99.90;;;;;;5073013;28;20098;-74
2022/01/09 10:10:37;;;;;;;17.88;2.38;;;5.30;99.90;;;;;;5072551;28;20558;-73
2022/01/09 10:13:10;;;;;;;13.98;2.17;;;5.40;99.90;;;;;;5072876;28;20454;-73
2022/01/09 10:16:02;;;;;;;18.55;2.63;;;5.40;99.90;;;;;;5072413;28;20045;-72
2022/01/09 10:18:40;;;;;;;18.95;2.53;;;5.50;99.90;;;;;;5070234;28;20052;-72
2022/01/09 10:21:08;;;;;;;18.77;2.80;;;5.50;99.90;;;;;;5072699;28;20061;-73
2022/01/09 10:23:33;;;;;;;15.60;2.60;;;5.50;99.90;;;;;;5072210;28;20057;-73
2022/01/09 10:26:11;;;;;;;16.40;2.30;;;5.60;99.90;;;;;;5075420;28;20056;-73
2022/01/09 10:28:38;;;;;;;16.88;3.15;;;5.60;99.90;;;;;;5076203;28;20051;-75
2022/01/09 10:31:15;;;;;;;19.83;2.83;;;5.60;99.90;;;;;;5076415;28;20083;-73
2022/01/09 10:33:55;;;;;;;17.85;2.63;;;5.60;99.90;;;;;;5076131;28;20045;-76
2022/01/09 10:36:39;;;;;;;16.73;2.58;;;5.70;99.90;;;;;;5076295;28;20123;-76
2022/01/09 10:39:16;;;;;;;15.88;2.95;;;5.70;99.90;;;;;;5076465;28;20385;-75
2022/01/09 10:41:46;;;;;;;17.45;2.75;;;5.70;99.90;;;;;;5074845;28;20048;-74
2022/01/09 10:44:16;;;;;;;25.08;3.05;;;5.80;99.90;;;;;;5075855;28;20511;-75
2022/01/09 10:46:53;;;;;;;19.27;3.10;;;5.90;99.90;;;;;;5075846;28;20127;-75
2022/01/09 10:49:19;;;;;;;19.40;2.55;;;5.90;99.90;;;;;;5076182;28;20040;-80
2022/01/09 10:51:45;;;;;;;14.47;2.70;;;6.00;99.90;;;;;;5074912;28;20109;-81
2022/01/09 10:54:10;;;;;;;17.80;3.00;;;6.10;99.90;;;;;;5091922;28;20052;-78
2022/01/09 10:56:36;;;;;;;18.10;2.43;;;6.10;99.90;;;;;;5075694;28;20056;-80
2022/01/09 10:59:02;;;;;;;17.23;2.10;;;6.10;99.90;;;;;;5058170;28;20045;-75
2022/01/09 11:01:29;;;;;;;16.10;2.93;;;6.30;99.90;;;;;;5057956;28;20044;-75
2022/01/09 11:03:56;;;;;;;21.75;3.92;;;6.30;99.90;;;;;;5075842;28;20053;-73
2022/01/09 11:06:24;;;;;;;11.52;2.38;;;6.30;99.90;;;;;;5075695;28;20051;-83
2022/01/09 11:08:51;;;;;;;12.68;2.00;;;6.40;99.90;;;;;;5075706;28;20533;-74
2022/01/09 11:14:02;;;;;;;15.00;2.15;;;6.30;99.90;;;;;;5075610;28;20044;-73
2022/01/09 11:16:42;;;;;;;14.57;2.45;;;6.30;99.90;;;;;;5075344;28;20053;-74
2022/01/09 11:19:26;;;;;;;18.70;3.00;;;6.30;99.90;;;;;;5075727;28;20102;-74
2022/01/09 11:21:55;;;;;;;15.57;2.53;;;;;;;;;;5075754;28;20083;-72
2022/01/09 11:24:39;;;;;;;12.73;2.03;;;;;;;;;;5075023;28;20078;-73
2022/01/09 11:27:15;;;;;;;15.10;2.70;;;;;;;;;;5075096;28;20084;-73
2022/01/09 11:29:41;;;;;;;;;;;;;;;;;;5074403;28;20123;-74
2022/01/09 11:32:07;;;;;;;12.37;1.93;;;;;;;;;;5075083;28;20399;-74
2022/01/09 11:34:58;;;;;;;12.80;2.17;;;;;;;;;;5074923;28;20340;-73
2022/01/09 11:37:40;;;;;;;12.20;2.20;;;;;;;;;;5073621;28;20052;-75
2022/01/09 11:40:20;;;;;;;14.85;2.05;;;;;;;;;;5075225;28;20044;-73
2022/01/09 11:43:03;;;;;;;11.40;2.17;;;;;;;;;;5074789;28;20048;-73
2022/01/09 11:45:48;;;;;;;10.02;2.33;;;;;;;;;;5073938;28;20144;-74
2022/01/09 11:48:15;;;;;;;11.15;2.17;;;;;;;;;;5073999;28;20040;-73
2022/01/09 11:51:00;;;;;;;15.40;2.03;;;;;;;;;;5074586;28;20097;-72
2022/01/09 11:53:26;;;;;;;11.73;2.03;;;;;;;;;;5073930;28;20087;-77
2022/01/09 11:55:52;;;;;;;10.90;2.20;;;;;;;;;;5074526;28;20055;-75
2022/01/09 11:58:20;;;;;;;14.73;2.17;;;;;;;;;;5074834;28;20049;-74
2022/01/09 12:00:47;;;;;;;12.27;2.08;;;;;;;;;;5074390;28;20049;-75
2022/01/09 12:03:28;;;;;;;10.40;2.20;;;;;;;;;;5074719;28;20049;-74
2022/01/09 12:06:01;;;;;;;12.68;2.22;;;;;;;;;;5074694;28;20041;-74
2022/01/09 12:08:27;;;;;;;11.43;2.53;;;;;;;;;;5074604;28;20077;-74
2022/01/09 12:10:54;;;;;;;13.68;3.05;;;;;;;;;;5073339;28;20392;-75
2022/01/09 12:13:40;;;;;;;11.73;2.50;;;;;;;;;;5074543;28;20041;-74
2022/01/09 12:16:07;;;;;;;16.43;2.20;;;;;;;;;;5074565;28;20040;-74
2022/01/09 12:18:43;;;;;;;16.40;2.90;;;;;;;;;;5074256;28;20050;-74
2022/01/09 12:21:10;;;;;;;10.20;2.53;;;;;;;;;;5074069;28;20549;-73
2022/01/09 12:23:36;;;;;;;10.55;1.80;;;;;;;;;;5072517;28;20427;-74
2022/01/09 12:26:03;;;;;;;8.65;1.50;;;;;;;;;;5074649;28;20059;-73
2022/01/09 12:28:38;;;;;;;12.38;2.20;;;;;;;;;;5073984;28;20480;-73
2022/01/09 12:31:04;;;;;;;12.88;2.13;;;;;;;;;;5074381;28;20396;-74
2022/01/09 12:33:34;;;;;;;9.32;1.88;;;;;;;;;;5074230;28;20048;-73
2022/01/09 12:36:17;;;;;;;6.57;1.63;;;;;;;;;;5074084;28;20053;-72
2022/01/09 12:38:45;;;;;;;11.05;1.30;;;;;;;;;;5073669;28;20128;-73
2022/01/09 12:41:14;;;;;;;7.35;1.20;;;;;;;;;;5074099;28;20048;-76
2022/01/09 12:43:41;;;;;;;6.80;1.42;;;;;;;;;;5072661;28;20494;-76
2022/01/09 12:46:08;;;;;;;5.65;1.00;;;;;;;;;;5074342;28;20056;-77
2022/01/09 12:48:34;;;;;;;5.78;1.20;;;;;;;;;;5073538;28;20086;-86
2022/01/09 12:51:07;;;;;;;9.52;1.90;;;;;;;;;;5073783;28;20541;-77
2022/01/09 12:53:44;;;;;;;9.93;1.45;;;;;;;;;;5073708;28;20063;-75
2022/01/09 12:56:12;;;;;;;6.65;1.27;;;;;;;;;;5072745;28;20048;-77
2022/01/09 12:58:42;;;;;;;7.63;1.85;;;;;;;;;;5073383;28;20041;-74
2022/01/09 13:01:12;;;;;;;7.90;1.40;;;;;;;;;;5072372;28;20131;-74
2022/01/09 13:03:40;;;;;;;5.97;1.23;;;;;;;;;;5072067;28;20472;-76
2022/01/09 13:06:08;;;;;;;6.50;1.50;;;;;;;;;;5073531;28;20481;-73
2022/01/09 13:08:40;;;;;;;10.27;2.08;;;;;;;;;;5073555;28;20044;-72